createdAt,value
2017-12-21T00:00:48.517Z,20.41
2017-12-21T00:01:57.848Z,20.41
2017-12-21T00:03:06.534Z,20.39
2017-12-21T00:04:15.752Z,20.41
2017-12-21T00:05:24.960Z,20.41
2017-12-21T00:06:33.913Z,20.38
2017-12-21T00:07:43.130Z,20.42
2017-12-21T00:08:52.408Z,20.42
2017-12-21T00:10:01.353Z,20.47
2017-12-21T00:11:10.842Z,20.38
2017-12-21T00:12:20.062Z,20.39
2017-12-21T00:13:29.320Z,20.42
2017-12-21T00:14:38.538Z,20.52
2017-12-21T00:15:47.499Z,20.43
2017-12-21T00:16:56.444Z,20.48
2017-12-21T00:18:05.963Z,20.41
2017-12-21T00:19:15.472Z,20.43
2017-12-21T00:20:24.985Z,20.43
2017-12-21T00:21:34.029Z,20.43
2017-12-21T00:22:42.984Z,20.42
2017-12-21T00:23:51.919Z,20.42
2017-12-21T00:25:01.680Z,20.42
2017-12-21T00:26:10.617Z,20.41
2017-12-21T00:27:19.829Z,20.42
2017-12-21T00:28:29.040Z,20.38
2017-12-21T00:29:37.726Z,20.41
2017-12-21T00:30:47.451Z,20.41
2017-12-21T00:31:56.676Z,20.42
2017-12-21T00:33:06.410Z,20.39
2017-12-21T00:34:15.626Z,20.38
2017-12-21T00:35:24.567Z,20.41
2017-12-21T00:36:33.279Z,20.41
2017-12-21T00:37:42.995Z,20.47
2017-12-21T00:38:51.951Z,20.43
2017-12-21T00:40:01.155Z,20.42
2017-12-21T00:41:10.099Z,20.41
2017-12-21T00:42:19.060Z,20.41
2017-12-21T00:43:28.296Z,20.35
2017-12-21T00:44:37.506Z,20.41
2017-12-21T00:45:46.460Z,20.42
2017-12-21T00:46:55.400Z,20.39
2017-12-21T00:48:04.116Z,20.38
2017-12-21T00:49:13.316Z,20.43
2017-12-21T00:50:22.253Z,20.41
2017-12-21T00:51:31.460Z,20.38
2017-12-21T00:52:40.435Z,20.41
2017-12-21T00:53:49.653Z,20.39
2017-12-21T00:54:59.141Z,20.38
2017-12-21T00:56:08.377Z,20.39
2017-12-21T00:57:17.071Z,20.42
2017-12-21T00:58:26.269Z,20.42
2017-12-21T00:59:35.219Z,20.41
2017-12-21T01:00:44.418Z,20.38
2017-12-21T01:01:53.395Z,20.41
2017-12-21T01:03:02.597Z,20.43
2017-12-21T01:04:11.793Z,20.41
2017-12-21T01:05:20.746Z,20.39
2017-12-21T01:06:30.230Z,20.39
2017-12-21T01:07:39.699Z,20.47
2017-12-21T01:08:48.657Z,20.41
2017-12-21T01:09:58.140Z,20.39
2017-12-21T01:11:06.820Z,20.41
2017-12-21T01:12:16.028Z,20.36
2017-12-21T01:13:25.241Z,20.41
2017-12-21T01:14:34.711Z,20.41
2017-12-21T01:15:43.652Z,20.39
2017-12-21T01:16:52.862Z,20.35
2017-12-21T01:18:01.800Z,20.39
2017-12-21T01:19:11.095Z,20.39
2017-12-21T01:20:20.024Z,20.41
2017-12-21T01:21:28.956Z,20.38
2017-12-21T01:22:37.921Z,20.39
2017-12-21T01:23:47.132Z,20.47
2017-12-21T01:24:56.144Z,20.42
2017-12-21T01:26:05.081Z,20.38
2017-12-21T01:27:14.040Z,20.39
2017-12-21T01:28:22.720Z,20.42
2017-12-21T01:29:31.928Z,20.39
2017-12-21T01:30:40.896Z,20.39
2017-12-21T01:31:49.585Z,20.38
2017-12-21T01:32:58.794Z,20.39
2017-12-21T01:34:08.253Z,20.42
2017-12-21T01:35:17.495Z,20.39
2017-12-21T01:36:26.687Z,20.39
2017-12-21T01:37:35.625Z,20.38
2017-12-21T01:38:44.570Z,20.42
2017-12-21T01:39:53.520Z,20.35
2017-12-21T01:41:02.456Z,20.43
2017-12-21T01:42:11.642Z,20.39
2017-12-21T01:43:20.575Z,20.39
2017-12-21T01:44:29.532Z,20.36
2017-12-21T01:45:38.755Z,20.39
2017-12-21T01:46:47.692Z,20.43
2017-12-21T01:47:56.908Z,20.41
2017-12-21T01:49:06.114Z,20.33
2017-12-21T01:50:15.604Z,20.35
2017-12-21T01:51:24.548Z,20.42
2017-12-21T01:52:33.240Z,20.42
2017-12-21T01:53:42.187Z,20.43
2017-12-21T01:54:51.657Z,20.43
2017-12-21T01:56:00.334Z,20.38
2017-12-21T01:57:09.567Z,20.36
2017-12-21T01:58:18.524Z,20.28
2017-12-21T01:59:28.262Z,20.38
2017-12-21T02:00:37.749Z,20.35
2017-12-21T02:01:46.684Z,20.32
2017-12-21T02:02:55.893Z,20.31
2017-12-21T02:04:05.096Z,20.43
2017-12-21T02:05:14.596Z,20.33
2017-12-21T02:06:23.265Z,20.42
2017-12-21T02:07:32.999Z,20.42
2017-12-21T02:08:42.501Z,20.36
2017-12-21T02:09:51.448Z,20.43
2017-12-21T02:11:00.656Z,20.38
2017-12-21T02:12:09.902Z,20.35
2017-12-21T02:13:18.863Z,20.36
2017-12-21T02:14:28.088Z,20.35
2017-12-21T02:15:37.571Z,20.43
2017-12-21T02:16:46.506Z,20.38
2017-12-21T02:17:55.725Z,20.38
2017-12-21T02:19:04.404Z,20.35
2017-12-21T02:20:13.919Z,20.36
2017-12-21T02:21:23.368Z,20.42
2017-12-21T02:22:32.813Z,20.35
2017-12-21T02:23:41.753Z,20.41
2017-12-21T02:24:50.695Z,20.38
2017-12-21T02:25:59.631Z,20.33
2017-12-21T02:27:08.861Z,20.39
2017-12-21T02:28:18.074Z,20.36
2017-12-21T02:29:27.526Z,20.38
2017-12-21T02:30:36.722Z,20.39
2017-12-21T02:31:46.464Z,20.31
2017-12-21T02:32:55.956Z,20.43
2017-12-21T02:34:05.439Z,20.38
2017-12-21T02:35:14.910Z,20.41
2017-12-21T02:36:23.876Z,20.32
2017-12-21T02:37:33.090Z,20.41
2017-12-21T02:38:42.817Z,20.32
2017-12-21T02:39:52.285Z,20.38
2017-12-21T02:41:01.302Z,20.36
2017-12-21T02:42:10.528Z,20.31
2017-12-21T02:43:19.788Z,20.32
2017-12-21T02:44:28.735Z,20.31
2017-12-21T02:45:38.200Z,20.39
2017-12-21T02:46:47.155Z,20.41
2017-12-21T02:47:56.427Z,20.33
2017-12-21T02:49:06.152Z,20.39
2017-12-21T02:50:15.118Z,20.36
2017-12-21T02:51:24.860Z,20.38
2017-12-21T02:52:34.336Z,20.32
2017-12-21T02:53:43.822Z,20.39
2017-12-21T02:54:53.041Z,20.35
2017-12-21T02:56:01.744Z,20.38
2017-12-21T02:57:11.480Z,20.41
2017-12-21T02:58:20.436Z,20.29
2017-12-21T02:59:29.114Z,20.39
2017-12-21T03:00:38.061Z,20.32
2017-12-21T03:01:47.003Z,20.39
2017-12-21T03:02:56.464Z,20.41
2017-12-21T03:04:05.986Z,20.33
2017-12-21T03:05:15.190Z,20.36
2017-12-21T03:06:24.143Z,20.39
2017-12-21T03:07:32.815Z,20.33
2017-12-21T03:08:42.308Z,20.42
2017-12-21T03:09:51.774Z,20.42
2017-12-21T03:11:01.239Z,20.42
2017-12-21T03:12:10.706Z,20.41
2017-12-21T03:13:19.924Z,20.41
2017-12-21T03:14:29.422Z,20.32
2017-12-21T03:15:39.157Z,20.38
2017-12-21T03:16:47.848Z,20.33
2017-12-21T03:17:57.562Z,20.38
2017-12-21T03:19:06.520Z,20.31
2017-12-21T03:20:15.460Z,20.36
2017-12-21T03:21:24.656Z,20.41
2017-12-21T03:22:33.612Z,20.33
2017-12-21T03:23:42.854Z,20.35
2017-12-21T03:24:52.051Z,20.41
2017-12-21T03:26:00.728Z,20.35
2017-12-21T03:27:09.668Z,20.41
2017-12-21T03:28:18.620Z,20.41
2017-12-21T03:29:27.810Z,20.38
2017-12-21T03:30:36.811Z,20.36
2017-12-21T03:31:46.328Z,20.36
2017-12-21T03:32:55.540Z,20.36
2017-12-21T03:34:04.495Z,20.41
2017-12-21T03:35:13.469Z,20.33
2017-12-21T03:36:22.420Z,20.33
2017-12-21T03:37:31.383Z,20.41
2017-12-21T03:38:40.088Z,20.39
2017-12-21T03:39:49.299Z,20.43
2017-12-21T03:40:58.306Z,20.35
2017-12-21T03:42:07.506Z,20.38
2017-12-21T03:43:16.725Z,20.41
2017-12-21T03:44:25.915Z,20.39
2017-12-21T03:45:35.115Z,20.41
2017-12-21T03:46:44.077Z,20.32
2017-12-21T03:47:53.070Z,20.35
2017-12-21T03:49:02.008Z,20.38
2017-12-21T03:50:10.952Z,20.41
2017-12-21T03:51:19.615Z,20.38
2017-12-21T03:52:28.557Z,20.38
2017-12-21T03:53:37.241Z,20.39
2017-12-21T03:54:46.733Z,20.41
2017-12-21T03:55:56.221Z,20.41
2017-12-21T03:57:05.446Z,20.31
2017-12-21T03:58:14.649Z,20.32
2017-12-21T03:59:23.574Z,20.32
2017-12-21T04:00:33.046Z,20.42
2017-12-21T04:01:42.762Z,20.39
2017-12-21T04:02:51.710Z,20.41
2017-12-21T04:04:00.910Z,20.42
2017-12-21T04:05:09.837Z,20.35
2017-12-21T04:06:19.049Z,20.33
2017-12-21T04:07:28.534Z,20.42
2017-12-21T04:08:37.486Z,20.42
2017-12-21T04:09:46.158Z,20.42
2017-12-21T04:10:55.346Z,20.35
2017-12-21T04:12:04.290Z,20.42
2017-12-21T04:13:12.983Z,20.41
2017-12-21T04:14:21.917Z,20.43
2017-12-21T04:15:31.142Z,20.42
2017-12-21T04:16:40.343Z,20.41
2017-12-21T04:17:49.532Z,20.41
2017-12-21T04:18:59.099Z,20.39
2017-12-21T04:20:08.009Z,20.32
2017-12-21T04:21:17.204Z,20.38
2017-12-21T04:22:26.414Z,20.36
2017-12-21T04:23:35.094Z,20.33
2017-12-21T04:24:44.064Z,20.39
2017-12-21T04:25:53.294Z,20.38
2017-12-21T04:27:02.242Z,20.38
2017-12-21T04:28:11.172Z,20.38
2017-12-21T04:29:20.402Z,20.32
2017-12-21T04:30:29.630Z,20.39
2017-12-21T04:31:39.143Z,20.39
2017-12-21T04:32:48.079Z,20.42
2017-12-21T04:33:57.283Z,20.42
2017-12-21T04:35:06.750Z,20.41
2017-12-21T04:36:15.971Z,20.38
2017-12-21T04:37:24.940Z,20.36
2017-12-21T04:38:33.619Z,20.31
2017-12-21T04:39:42.559Z,20.41
2017-12-21T04:40:51.241Z,20.38
2017-12-21T04:42:00.471Z,20.38
2017-12-21T04:43:09.932Z,20.39
2017-12-21T04:44:19.142Z,20.39
2017-12-21T04:45:28.089Z,20.42
2017-12-21T04:46:37.053Z,20.41
2017-12-21T04:47:46.243Z,20.43
2017-12-21T04:48:55.705Z,20.35
2017-12-21T04:50:04.926Z,20.38
2017-12-21T04:51:14.142Z,20.39
2017-12-21T04:52:23.343Z,20.33
2017-12-21T04:53:32.808Z,20.38
2017-12-21T04:54:41.999Z,20.43
2017-12-21T04:55:50.938Z,20.43
2017-12-21T04:57:00.397Z,20.38
2017-12-21T04:58:09.360Z,20.41
2017-12-21T04:59:18.299Z,20.41
2017-12-21T05:00:26.999Z,20.35
2017-12-21T05:01:35.936Z,20.42
2017-12-21T05:02:45.399Z,20.41
2017-12-21T05:03:54.681Z,20.43
2017-12-21T05:05:04.150Z,20.42
2017-12-21T05:06:13.348Z,20.41
2017-12-21T05:07:22.542Z,20.36
2017-12-21T05:08:31.796Z,20.42
2017-12-21T05:09:41.011Z,20.41
2017-12-21T05:10:50.471Z,20.39
2017-12-21T05:11:59.687Z,20.38
2017-12-21T05:13:08.367Z,20.42
2017-12-21T05:14:17.573Z,20.42
2017-12-21T05:15:26.263Z,20.43
2017-12-21T05:16:35.987Z,20.39
2017-12-21T05:17:45.438Z,20.42
2017-12-21T05:18:54.634Z,20.36
2017-12-21T05:20:03.828Z,20.38
2017-12-21T05:21:13.050Z,20.43
2017-12-21T05:22:21.995Z,20.41
2017-12-21T05:23:31.455Z,20.41
2017-12-21T05:24:40.126Z,20.43
2017-12-21T05:25:48.860Z,20.33
2017-12-21T05:26:57.818Z,20.38
2017-12-21T05:28:06.484Z,20.42
2017-12-21T05:29:15.412Z,20.38
2017-12-21T05:30:24.368Z,20.38
2017-12-21T05:31:33.840Z,20.43
2017-12-21T05:32:43.311Z,20.39
2017-12-21T05:33:52.512Z,20.39
2017-12-21T05:35:01.219Z,20.36
2017-12-21T05:36:10.979Z,20.41
2017-12-21T05:37:20.536Z,20.41
2017-12-21T05:38:30.248Z,20.43
2017-12-21T05:39:39.456Z,20.42
2017-12-21T05:40:48.669Z,20.42
2017-12-21T05:41:57.344Z,20.42
2017-12-21T05:43:06.308Z,20.47
2017-12-21T05:44:15.587Z,20.38
2017-12-21T05:45:24.799Z,20.38
2017-12-21T05:46:33.752Z,20.39
2017-12-21T05:47:42.956Z,20.38
2017-12-21T05:48:51.913Z,20.39
2017-12-21T05:50:00.839Z,20.38
2017-12-21T05:51:10.297Z,20.41
2017-12-21T05:52:19.003Z,20.42
2017-12-21T05:53:27.995Z,20.42
2017-12-21T05:54:37.449Z,20.41
2017-12-21T05:55:46.663Z,20.36
2017-12-21T05:56:55.333Z,20.35
2017-12-21T05:58:04.008Z,20.47
2017-12-21T05:59:12.676Z,20.47
2017-12-21T06:00:21.871Z,20.43
2017-12-21T06:01:30.809Z,20.38
2017-12-21T06:02:40.521Z,20.36
2017-12-21T06:03:49.222Z,20.41
2017-12-21T06:04:57.909Z,20.38
2017-12-21T06:06:07.122Z,20.41
2017-12-21T06:07:16.328Z,20.41
2017-12-21T06:08:25.275Z,20.35
2017-12-21T06:09:34.227Z,20.29
2017-12-21T06:10:43.184Z,20.43
2017-12-21T06:11:52.149Z,20.39
2017-12-21T06:13:01.094Z,20.38
2017-12-21T06:14:09.812Z,20.32
2017-12-21T06:15:19.567Z,20.41
2017-12-21T06:16:28.503Z,20.38
2017-12-21T06:17:37.735Z,20.41
2017-12-21T06:18:47.738Z,20.38
2017-12-21T06:19:56.962Z,20.35
2017-12-21T06:21:05.894Z,20.41
2017-12-21T06:22:14.826Z,20.36
2017-12-21T06:23:24.551Z,20.42
2017-12-21T06:24:33.749Z,20.42
2017-12-21T06:25:42.712Z,20.39
2017-12-21T06:26:51.656Z,20.36
2017-12-21T06:28:00.359Z,20.33
2017-12-21T06:29:09.294Z,20.41
2017-12-21T06:30:18.494Z,20.39
2017-12-21T06:31:27.702Z,20.42
2017-12-21T06:32:37.171Z,20.41
2017-12-21T06:33:46.400Z,20.38
2017-12-21T06:34:56.045Z,20.36
2017-12-21T06:36:05.260Z,20.36
2017-12-21T06:37:14.452Z,20.42
2017-12-21T06:38:23.914Z,20.32
2017-12-21T06:39:33.380Z,20.32
2017-12-21T06:40:42.310Z,20.32
2017-12-21T06:41:51.029Z,20.42
2017-12-21T06:42:59.974Z,20.41
2017-12-21T06:44:09.172Z,20.36
2017-12-21T06:45:18.382Z,20.35
2017-12-21T06:46:27.591Z,20.42
2017-12-21T06:47:36.834Z,20.42
2017-12-21T06:48:45.772Z,20.33
2017-12-21T06:49:54.712Z,20.41
2017-12-21T06:51:04.202Z,20.41
2017-12-21T06:52:13.420Z,20.36
2017-12-21T06:53:22.623Z,20.39
2017-12-21T06:54:31.560Z,20.38
2017-12-21T06:55:40.757Z,20.29
2017-12-21T06:56:49.431Z,20.36
2017-12-21T06:57:58.378Z,20.35
2017-12-21T06:59:07.386Z,20.32
2017-12-21T07:00:16.587Z,20.39
2017-12-21T07:01:25.532Z,20.36
2017-12-21T07:02:34.229Z,20.41
2017-12-21T07:03:43.457Z,20.38
2017-12-21T07:04:52.407Z,20.35
2017-12-21T07:06:01.613Z,20.39
2017-12-21T07:07:10.557Z,20.42
2017-12-21T07:08:19.748Z,20.48
2017-12-21T07:09:28.677Z,20.55
2017-12-21T07:10:38.211Z,20.59
2017-12-21T07:11:47.426Z,20.62
2017-12-21T07:12:56.130Z,20.67
2017-12-21T07:14:04.803Z,20.7
2017-12-21T07:15:13.481Z,20.76
2017-12-21T07:16:22.438Z,20.8
2017-12-21T07:17:31.377Z,20.85
2017-12-21T07:18:40.335Z,20.91
2017-12-21T07:19:49.796Z,20.91
2017-12-21T07:20:58.737Z,21.03
2017-12-21T07:22:07.691Z,21.07
2017-12-21T07:23:17.174Z,21.17
2017-12-21T07:24:26.467Z,21.13
2017-12-21T07:25:35.125Z,21.27
2017-12-21T07:26:44.056Z,21.25
2017-12-21T07:27:53.249Z,21.34
2017-12-21T07:29:02.446Z,21.32
2017-12-21T07:30:11.656Z,21.37
2017-12-21T07:31:20.330Z,21.42
2017-12-21T07:32:29.536Z,21.5
2017-12-21T07:33:38.209Z,21.58
2017-12-21T07:34:47.412Z,21.59
2017-12-21T07:35:56.357Z,21.64
2017-12-21T07:37:05.038Z,21.72
2017-12-21T07:38:14.247Z,21.74
2017-12-21T07:39:23.796Z,21.77
2017-12-21T07:40:32.734Z,21.79
2017-12-21T07:41:42.000Z,21.9
2017-12-21T07:42:50.949Z,21.92
2017-12-21T07:43:59.891Z,21.99
2017-12-21T07:45:09.366Z,22
2017-12-21T07:46:18.046Z,21.98
2017-12-21T07:47:27.274Z,22.06
2017-12-21T07:48:35.962Z,22.06
2017-12-21T07:49:44.928Z,22.15
2017-12-21T07:50:54.158Z,22.18
2017-12-21T07:52:03.127Z,22.18
2017-12-21T07:53:12.076Z,22.21
2017-12-21T07:54:21.012Z,22.15
2017-12-21T07:55:30.240Z,22.18
2017-12-21T07:56:38.917Z,22.22
2017-12-21T07:57:47.856Z,22.22
2017-12-21T07:58:56.565Z,22.24
2017-12-21T08:00:05.768Z,22.22
2017-12-21T08:01:14.708Z,22.25
2017-12-21T08:02:23.672Z,22.27
2017-12-21T08:03:32.617Z,22.22
2017-12-21T08:04:41.294Z,22.27
2017-12-21T08:05:50.276Z,22.3
2017-12-21T08:06:58.989Z,22.24
2017-12-21T08:08:07.975Z,22.28
2017-12-21T08:09:17.439Z,22.28
2017-12-21T08:10:26.905Z,22.27
2017-12-21T08:11:35.865Z,22.27
2017-12-21T08:12:45.337Z,22.31
2017-12-21T08:13:54.038Z,22.36
2017-12-21T08:15:03.259Z,22.4
2017-12-21T08:16:12.212Z,22.46
2017-12-21T08:17:21.695Z,22.47
2017-12-21T08:18:30.378Z,22.57
2017-12-21T08:19:39.620Z,22.64
2017-12-21T08:20:48.836Z,22.64
2017-12-21T08:21:57.879Z,22.61
2017-12-21T08:23:07.090Z,22.65
2017-12-21T08:24:15.782Z,22.73
2017-12-21T08:25:24.746Z,22.76
2017-12-21T08:26:33.727Z,22.83
2017-12-21T08:27:42.943Z,22.86
2017-12-21T08:28:51.909Z,22.9
2017-12-21T08:30:01.390Z,22.97
2017-12-21T08:31:10.066Z,22.98
2017-12-21T08:32:19.278Z,23.01
2017-12-21T08:33:28.501Z,23.07
2017-12-21T08:34:37.437Z,23.01
2017-12-21T08:35:46.396Z,23
2017-12-21T08:36:55.634Z,23.05
2017-12-21T08:38:04.578Z,23.05
2017-12-21T08:39:13.542Z,23.04
2017-12-21T08:40:22.742Z,23.01
2017-12-21T08:41:31.963Z,23.12
2017-12-21T08:42:41.160Z,23.13
2017-12-21T08:43:50.622Z,23.09
2017-12-21T08:44:59.303Z,23.1
2017-12-21T08:46:08.519Z,23.07
2017-12-21T08:47:17.730Z,22.97
2017-12-21T08:48:27.463Z,22.57
2017-12-21T08:49:36.145Z,21.98
2017-12-21T08:50:45.357Z,21.4
2017-12-21T08:51:54.570Z,20.85
2017-12-21T08:53:04.038Z,20.38
2017-12-21T08:54:12.729Z,19.96
2017-12-21T08:55:21.765Z,19.61
2017-12-21T08:56:30.711Z,19.29
2017-12-21T08:57:39.646Z,19.07
2017-12-21T08:58:48.594Z,18.91
2017-12-21T08:59:57.815Z,18.95
2017-12-21T09:01:07.008Z,18.99
2017-12-21T09:02:15.979Z,19.04
2017-12-21T09:03:25.449Z,19.1
2017-12-21T09:04:34.655Z,19.26
2017-12-21T09:05:43.599Z,19.32
2017-12-21T09:06:52.541Z,19.54
2017-12-21T09:08:02.003Z,19.68
2017-12-21T09:09:11.261Z,19.69
2017-12-21T09:10:20.208Z,19.83
2017-12-21T09:11:29.146Z,19.92
2017-12-21T09:12:37.826Z,20.03
2017-12-21T09:13:47.044Z,20.1
2017-12-21T09:14:55.976Z,20.17
2017-12-21T09:16:05.177Z,20.39
2017-12-21T09:17:14.649Z,20.41
2017-12-21T09:18:24.136Z,20.52
2017-12-21T09:19:33.603Z,20.48
2017-12-21T09:20:42.550Z,20.67
2017-12-21T09:21:51.761Z,20.72
2017-12-21T09:23:00.708Z,20.64
2017-12-21T09:24:09.389Z,20.7
2017-12-21T09:25:18.610Z,20.69
2017-12-21T09:26:27.605Z,20.76
2017-12-21T09:27:36.563Z,20.84
2017-12-21T09:28:45.761Z,20.8
2017-12-21T09:29:54.971Z,20.92
2017-12-21T09:31:04.189Z,20.94
2017-12-21T09:32:13.437Z,20.95
2017-12-21T09:33:22.685Z,20.95
2017-12-21T09:34:31.648Z,21.03
2017-12-21T09:35:40.863Z,21.07
2017-12-21T09:36:50.069Z,21.04
2017-12-21T09:37:59.040Z,21.06
2017-12-21T09:39:08.844Z,21.06
2017-12-21T09:40:17.794Z,21.09
2017-12-21T09:41:26.482Z,21.07
2017-12-21T09:42:35.690Z,21.16
2017-12-21T09:43:44.629Z,21.09
2017-12-21T09:44:53.859Z,21.1
2017-12-21T09:46:02.813Z,21.1
2017-12-21T09:47:12.044Z,21.13
2017-12-21T09:48:20.805Z,21.16
2017-12-21T09:49:30.533Z,21.19
2017-12-21T09:50:39.487Z,21.14
2017-12-21T09:51:48.425Z,21.14
2017-12-21T09:52:57.644Z,21.24
2017-12-21T09:54:06.599Z,21.19
2017-12-21T09:55:15.557Z,21.19
2017-12-21T09:56:25.065Z,21.19
2017-12-21T09:57:34.804Z,21.16
2017-12-21T09:58:43.759Z,21.16
2017-12-21T09:59:52.714Z,21.16
2017-12-21T10:01:01.403Z,21.21
2017-12-21T10:02:10.612Z,21.24
2017-12-21T10:03:19.634Z,21.19
2017-12-21T10:04:28.323Z,21.14
2017-12-21T10:05:37.795Z,21.16
2017-12-21T10:06:47.030Z,21.21
2017-12-21T10:07:56.539Z,21.21
2017-12-21T10:09:05.492Z,21.22
2017-12-21T10:10:15.230Z,21.22
2017-12-21T10:11:24.436Z,21.22
2017-12-21T10:12:33.384Z,21.24
2017-12-21T10:13:42.591Z,21.17
2017-12-21T10:14:51.301Z,21.16
2017-12-21T10:16:00.268Z,21.14
2017-12-21T10:17:09.221Z,21.24
2017-12-21T10:18:18.166Z,21.22
2017-12-21T10:19:27.114Z,21.13
2017-12-21T10:20:35.811Z,21.17
2017-12-21T10:21:45.037Z,21.17
2017-12-21T10:22:54.494Z,21.16
2017-12-21T10:24:04.249Z,21.19
2017-12-21T10:25:13.020Z,21.16
2017-12-21T10:26:22.130Z,21.12
2017-12-21T10:27:31.104Z,21.14
2017-12-21T10:28:40.299Z,21.17
2017-12-21T10:29:49.521Z,21.13
2017-12-21T10:30:58.213Z,21.13
2017-12-21T10:32:07.441Z,21.16
2017-12-21T10:33:16.923Z,21.12
2017-12-21T10:34:26.128Z,21.13
2017-12-21T10:35:35.351Z,21.14
2017-12-21T10:36:44.035Z,21.21
2017-12-21T10:37:53.008Z,21.12
2017-12-21T10:39:01.957Z,21.21
2017-12-21T10:40:11.759Z,21.16
2017-12-21T10:41:20.996Z,21.14
2017-12-21T10:42:29.693Z,21.17
2017-12-21T10:43:38.915Z,21.16
2017-12-21T10:44:48.152Z,21.14
2017-12-21T10:45:57.100Z,21.27
2017-12-21T10:47:06.596Z,21.13
2017-12-21T10:48:16.063Z,21.14
2017-12-21T10:49:25.068Z,21.14
2017-12-21T10:50:33.769Z,21.22
2017-12-21T10:51:43.002Z,21.17
2017-12-21T10:52:52.221Z,21.14
2017-12-21T10:54:01.465Z,21.16
2017-12-21T10:55:10.696Z,21.13
2017-12-21T10:56:19.970Z,21.16
2017-12-21T10:57:29.204Z,21.13
2017-12-21T10:58:38.167Z,21.16
2017-12-21T10:59:47.640Z,21.13
2017-12-21T11:00:56.613Z,21.1
2017-12-21T11:02:06.101Z,21.12
2017-12-21T11:03:15.316Z,21.09
2017-12-21T11:04:24.569Z,21.14
2017-12-21T11:05:33.779Z,21.1
2017-12-21T11:06:42.475Z,21.14
2017-12-21T11:07:51.446Z,21.14
2017-12-21T11:09:00.400Z,21.16
2017-12-21T11:10:09.372Z,21.17
2017-12-21T11:11:18.310Z,21.16
2017-12-21T11:12:27.263Z,21.16
2017-12-21T11:13:36.490Z,21.14
2017-12-21T11:14:45.477Z,21.13
2017-12-21T11:15:54.434Z,21.1
2017-12-21T11:17:03.132Z,21.16
2017-12-21T11:18:11.821Z,21.12
2017-12-21T11:19:21.320Z,21.13
2017-12-21T11:20:30.070Z,21.14
2017-12-21T11:21:39.028Z,21.09
2017-12-21T11:22:48.241Z,21.09
2017-12-21T11:23:57.176Z,21.12
2017-12-21T11:25:06.648Z,21.13
2017-12-21T11:26:15.874Z,21.13
2017-12-21T11:27:24.838Z,21.1
2017-12-21T11:28:33.520Z,21.13
2017-12-21T11:29:42.244Z,21.06
2017-12-21T11:30:51.200Z,21.13
2017-12-21T11:31:59.885Z,21.06
2017-12-21T11:33:09.645Z,21.13
2017-12-21T11:34:18.870Z,21.13
2017-12-21T11:35:28.092Z,21.09
2017-12-21T11:36:37.298Z,21.09
2017-12-21T11:37:46.503Z,21.16
2017-12-21T11:38:55.762Z,21.13
2017-12-21T11:40:04.726Z,21.13
2017-12-21T11:41:13.954Z,21.07
2017-12-21T11:42:23.691Z,21.14
2017-12-21T11:43:32.904Z,21.1
2017-12-21T11:44:41.856Z,21.12
2017-12-21T11:45:50.815Z,21.13
2017-12-21T11:47:00.042Z,21.06
2017-12-21T11:48:09.523Z,21.17
2017-12-21T11:49:19.013Z,21.12
2017-12-21T11:50:28.237Z,21.04
2017-12-21T11:51:37.450Z,21.12
2017-12-21T11:52:46.404Z,21.04
2017-12-21T11:53:55.624Z,21.07
2017-12-21T11:55:04.600Z,21.14
2017-12-21T11:56:13.373Z,21.03
2017-12-21T11:57:22.948Z,20.99
2017-12-21T11:58:32.171Z,21.04
2017-12-21T11:59:41.666Z,21.04
2017-12-21T12:00:50.628Z,21.03
2017-12-21T12:01:59.838Z,21.06
2017-12-21T12:03:08.518Z,21.04
2017-12-21T12:04:17.718Z,21.07
2017-12-21T12:05:26.964Z,21.04
2017-12-21T12:06:36.176Z,21.01
2017-12-21T12:07:45.673Z,21.06
2017-12-21T12:08:54.668Z,21.04
2017-12-21T12:10:03.624Z,21.04
2017-12-21T12:11:12.578Z,21.09
2017-12-21T12:12:22.395Z,21.12
2017-12-21T12:13:32.104Z,21.03
2017-12-21T12:14:41.370Z,21.04
2017-12-21T12:15:50.309Z,21.1
2017-12-21T12:16:59.548Z,21.03
2017-12-21T12:18:08.746Z,20.98
2017-12-21T12:19:17.959Z,21.07
2017-12-21T12:20:26.911Z,20.99
2017-12-21T12:21:36.379Z,21.04
2017-12-21T12:22:45.343Z,21.03
2017-12-21T12:23:54.326Z,20.97
2017-12-21T12:25:03.890Z,20.94
2017-12-21T12:26:12.846Z,20.97
2017-12-21T12:27:22.340Z,20.99
2017-12-21T12:28:31.869Z,20.99
2017-12-21T12:29:41.080Z,20.92
2017-12-21T12:30:50.277Z,21.03
2017-12-21T12:31:58.969Z,20.99
2017-12-21T12:33:08.175Z,20.98
2017-12-21T12:34:17.136Z,20.98
2017-12-21T12:35:26.663Z,21.04
2017-12-21T12:36:35.906Z,21.03
2017-12-21T12:37:44.869Z,21.09
2017-12-21T12:38:54.093Z,21.06
2017-12-21T12:40:03.043Z,21.04
2017-12-21T12:41:12.007Z,21.04
2017-12-21T12:42:20.975Z,21.01
2017-12-21T12:43:29.656Z,21.03
2017-12-21T12:44:38.342Z,20.99
2017-12-21T12:45:47.362Z,20.99
2017-12-21T12:46:56.303Z,20.94
2017-12-21T12:48:05.280Z,20.95
2017-12-21T12:49:14.241Z,20.99
2017-12-21T12:50:23.278Z,20.98
2017-12-21T12:51:32.482Z,20.95
2017-12-21T12:52:41.700Z,21.01
2017-12-21T12:53:51.176Z,21.06
2017-12-21T12:55:00.706Z,21.04
2017-12-21T12:56:09.916Z,20.99
2017-12-21T12:57:18.875Z,21.03
2017-12-21T12:58:28.079Z,20.94
2017-12-21T12:59:37.365Z,20.99
2017-12-21T13:00:46.320Z,20.99
2017-12-21T13:01:55.272Z,20.95
2017-12-21T13:03:04.829Z,20.95
2017-12-21T13:04:14.126Z,20.99
2017-12-21T13:05:23.380Z,21.03
2017-12-21T13:06:32.358Z,21.04
2017-12-21T13:07:41.335Z,20.99
2017-12-21T13:08:51.104Z,20.99
2017-12-21T13:09:59.823Z,20.99
2017-12-21T13:11:09.117Z,21.03
2017-12-21T13:12:18.595Z,20.97
2017-12-21T13:13:27.554Z,20.95
2017-12-21T13:14:36.813Z,20.99
2017-12-21T13:15:46.059Z,20.95
2017-12-21T13:16:55.050Z,20.99
2017-12-21T13:18:03.754Z,20.99
2017-12-21T13:19:12.726Z,20.99
2017-12-21T13:20:21.695Z,20.99
2017-12-21T13:21:30.916Z,20.94
2017-12-21T13:22:40.406Z,21.03
2017-12-21T13:23:49.646Z,21.01
2017-12-21T13:24:58.625Z,20.99
2017-12-21T13:26:07.334Z,20.99
2017-12-21T13:27:16.824Z,20.99
2017-12-21T13:28:26.047Z,21.04
2017-12-21T13:29:35.265Z,20.99
2017-12-21T13:30:44.768Z,20.98
2017-12-21T13:31:53.473Z,20.95
2017-12-21T13:33:02.686Z,20.97
2017-12-21T13:34:11.915Z,20.99
2017-12-21T13:35:21.400Z,20.98
2017-12-21T13:36:30.358Z,20.94
2017-12-21T13:37:39.582Z,21.01
2017-12-21T13:38:48.540Z,20.99
2017-12-21T13:39:57.498Z,20.99
2017-12-21T13:41:07.012Z,20.95
2017-12-21T13:42:16.500Z,20.99
2017-12-21T13:43:25.479Z,20.99
2017-12-21T13:44:35.221Z,20.98
2017-12-21T13:45:43.932Z,20.99
2017-12-21T13:46:52.616Z,20.99
2017-12-21T13:48:01.832Z,20.99
2017-12-21T13:49:11.068Z,20.97
2017-12-21T13:50:20.552Z,20.97
2017-12-21T13:51:29.534Z,20.98
2017-12-21T13:52:38.510Z,20.95
2017-12-21T13:53:47.453Z,20.92
2017-12-21T13:54:56.930Z,20.92
2017-12-21T13:56:06.455Z,20.98
2017-12-21T13:57:15.154Z,20.92
2017-12-21T13:58:24.900Z,20.99
2017-12-21T13:59:34.120Z,20.99
2017-12-21T14:01:34.381Z,20.92
2017-12-21T14:02:43.328Z,20.88
2017-12-21T14:03:52.810Z,20.94
2017-12-21T14:05:02.282Z,20.94
2017-12-21T14:06:12.074Z,20.97
2017-12-21T14:07:21.303Z,20.98
2017-12-21T14:08:30.253Z,20.98
2017-12-21T14:09:39.252Z,20.98
2017-12-21T14:10:48.227Z,20.94
2017-12-21T14:11:57.210Z,20.98
2017-12-21T14:13:06.455Z,20.95
2017-12-21T14:14:15.447Z,20.97
2017-12-21T14:15:24.152Z,20.97
2017-12-21T14:16:33.096Z,20.92
2017-12-21T14:17:42.320Z,20.92
2017-12-21T14:18:51.266Z,20.95
2017-12-21T14:20:00.988Z,20.95
2017-12-21T14:21:10.227Z,20.94
2017-12-21T14:22:19.703Z,20.94
2017-12-21T14:23:29.443Z,20.99
2017-12-21T14:24:38.652Z,20.89
2017-12-21T14:25:47.596Z,20.92
2017-12-21T14:26:56.563Z,20.95
2017-12-21T14:28:05.258Z,20.89
2017-12-21T14:29:14.037Z,20.91
2017-12-21T14:30:23.246Z,20.91
2017-12-21T14:31:32.361Z,20.85
2017-12-21T14:32:41.842Z,20.91
2017-12-21T14:33:51.064Z,20.85
2017-12-21T14:35:00.302Z,20.8
2017-12-21T14:36:09.023Z,20.94
2017-12-21T14:37:18.833Z,20.84
2017-12-21T14:38:28.361Z,20.84
2017-12-21T14:39:37.078Z,20.94
2017-12-21T14:40:46.054Z,20.94
2017-12-21T14:41:55.548Z,20.84
2017-12-21T14:43:04.530Z,20.85
2017-12-21T14:44:13.537Z,20.84
2017-12-21T14:45:22.757Z,20.84
2017-12-21T14:46:31.705Z,20.82
2017-12-21T14:47:40.940Z,20.79
2017-12-21T14:48:50.736Z,20.87
2017-12-21T14:49:59.700Z,20.8
2017-12-21T14:51:08.770Z,20.8
2017-12-21T14:52:18.273Z,20.85